South San Francisco, California
Current Conditions -  °F | °C
As of 2:56 PM on Tuesday 25 Nov 2014 (Local Time) from KSFO Reporting Station
Scattered Clouds Scattered Clouds  
Wind Chill: 64°   Ceiling: Unl
Heat Index: 64°   Visibility: 10mi
Dew Point: 49°   Wind: 0mph
Humidity: 58%   Direction: NA
Pressure: 30.37"   Gusts: NA
Location:  37.66°N, 122.41°W
Report Text: KSFO 252256Z 00000KT 10SM SCT200 18/09 A3037 RMK AO2 SLP283 T01780094
Loading
Personal Weather Stations






























Interactive Weather Map New forecast layout! Learn more

10-Day Weather Forecast

Advertisements
Track Severe Weather on mobile